createdAt,value
2022-10-13T00:01:12.923Z,101254.34
2022-10-13T00:03:17.915Z,101246.47
2022-10-13T00:05:21.774Z,101249.97
2022-10-13T00:07:25.614Z,101250.69
2022-10-13T00:09:29.372Z,101248.97
2022-10-13T00:11:33.732Z,101262.19
2022-10-13T00:13:38.022Z,101251.69
2022-10-13T00:15:42.761Z,101253.56
2022-10-13T00:17:48.331Z,101251.00
2022-10-13T00:19:51.887Z,101247.56
2022-10-13T00:21:55.724Z,101248.56
2022-10-13T00:24:00.021Z,101246.72
2022-10-13T00:26:06.081Z,101248.50
2022-10-13T00:28:09.654Z,101247.66
2022-10-13T00:30:14.221Z,101245.94
2022-10-13T00:32:18.050Z,101250.47
2022-10-13T00:34:23.518Z,101241.81
2022-10-13T00:36:27.249Z,101236.63
2022-10-13T00:38:30.754Z,101243.75
2022-10-13T00:40:34.732Z,101249.19
2022-10-13T00:42:38.438Z,101251.06
2022-10-13T00:45:04.025Z,101256.41
2022-10-13T00:47:07.826Z,101247.63
2022-10-13T00:49:16.572Z,101248.69
2022-10-13T00:51:27.963Z,101240.03
2022-10-13T00:53:35.760Z,101239.38
2022-10-13T00:55:41.675Z,101241.28
2022-10-13T00:57:47.402Z,101237.00
2022-10-13T00:59:51.312Z,101234.53
2022-10-13T01:01:55.550Z,101236.53
2022-10-13T01:03:59.124Z,101231.41
2022-10-13T01:06:05.563Z,101234.22
2022-10-13T01:08:12.479Z,101223.00
2022-10-13T01:10:24.822Z,101232.78
2022-10-13T01:12:42.433Z,101231.00
2022-10-13T01:14:54.728Z,101229.38
2022-10-13T01:17:07.656Z,101243.50
2022-10-13T01:19:27.232Z,101244.56
2022-10-13T01:21:35.043Z,101248.13
2022-10-13T01:24:16.350Z,101251.72
2022-10-13T01:26:44.603Z,101242.34
2022-10-13T01:29:09.061Z,101242.50
2022-10-13T01:31:22.657Z,101242.50
2022-10-13T01:33:36.543Z,101238.22
2022-10-13T01:35:50.279Z,101233.94
2022-10-13T01:37:59.390Z,101241.88
2022-10-13T01:40:08.217Z,101247.31
2022-10-13T01:42:17.822Z,101244.66
2022-10-13T01:44:27.141Z,101243.91
2022-10-13T01:46:36.140Z,101237.81
2022-10-13T01:48:41.727Z,101238.81
2022-10-13T01:50:46.000Z,101238.88
2022-10-13T01:52:51.697Z,101245.16
2022-10-13T01:54:57.037Z,101241.75
2022-10-13T01:57:01.091Z,101240.09
2022-10-13T01:59:08.510Z,101246.31
2022-10-13T02:01:25.472Z,101251.66
2022-10-13T02:03:40.288Z,101245.56
2022-10-13T02:05:50.487Z,101245.53
2022-10-13T02:08:01.418Z,101242.03
2022-10-13T02:10:13.322Z,101238.53
2022-10-13T02:12:22.817Z,101230.69
2022-10-13T02:14:29.897Z,101222.78
2022-10-13T02:16:37.759Z,101219.34
2022-10-13T02:18:43.841Z,101215.78
2022-10-13T02:20:48.569Z,101210.59
2022-10-13T02:22:57.062Z,101208.22
2022-10-13T02:25:00.797Z,101212.84
2022-10-13T02:27:06.708Z,101205.97
2022-10-13T02:29:11.126Z,101201.53
2022-10-13T02:31:14.399Z,101201.53
2022-10-13T02:33:18.444Z,101199.88
2022-10-13T02:35:23.127Z,101197.31
2022-10-13T02:37:26.554Z,101199.16
2022-10-13T02:39:29.833Z,101188.75
2022-10-13T02:41:33.084Z,101191.47
2022-10-13T02:43:37.979Z,101189.97
2022-10-13T02:45:41.310Z,101190.03
2022-10-13T02:47:44.567Z,101186.69
2022-10-13T02:49:47.811Z,101191.19
2022-10-13T02:51:53.425Z,101189.53
2022-10-13T02:53:56.775Z,101179.97
2022-10-13T02:56:00.147Z,101190.53
2022-10-13T02:58:04.334Z,101185.25
2022-10-13T03:00:09.332Z,101185.41
2022-10-13T03:02:12.968Z,101178.41
2022-10-13T03:04:16.469Z,101181.19
2022-10-13T03:06:19.701Z,101184.66
2022-10-13T03:08:25.001Z,101169.84
2022-10-13T03:10:28.460Z,101168.00
2022-10-13T03:12:33.513Z,101154.81
2022-10-13T03:14:37.242Z,101148.75
2022-10-13T03:16:40.765Z,101157.50
2022-10-13T03:18:46.390Z,101156.66
2022-10-13T03:20:57.706Z,101168.28
2022-10-13T03:23:01.063Z,101158.88
2022-10-13T03:25:06.594Z,101163.41
2022-10-13T03:27:10.071Z,101175.81
2022-10-13T03:29:14.930Z,101175.06
2022-10-13T03:31:19.007Z,101174.22
2022-10-13T03:33:23.249Z,101175.16
2022-10-13T03:35:28.961Z,101176.06
2022-10-13T03:37:32.282Z,101179.63
2022-10-13T03:39:35.995Z,101176.22
2022-10-13T03:41:41.179Z,101188.47
2022-10-13T03:43:45.675Z,101186.75
2022-10-13T03:45:56.434Z,101196.63
2022-10-13T03:47:59.780Z,101202.03
2022-10-13T03:50:03.200Z,101201.19
2022-10-13T03:52:06.824Z,101195.97
2022-10-13T03:54:12.219Z,101192.41
2022-10-13T03:56:17.600Z,101190.69
2022-10-13T03:58:29.540Z,101175.16
2022-10-13T04:00:32.745Z,101169.06
2022-10-13T04:02:35.999Z,101165.75
2022-10-13T04:04:39.924Z,101159.91
2022-10-13T04:06:43.390Z,101149.75
2022-10-13T04:08:46.733Z,101142.22
2022-10-13T04:10:49.941Z,101138.69
2022-10-13T04:12:53.140Z,101130.00
2022-10-13T04:14:57.814Z,101120.41
2022-10-13T04:17:01.074Z,101124.09
2022-10-13T04:19:06.767Z,101124.84
2022-10-13T04:21:11.093Z,101126.44
2022-10-13T04:23:14.588Z,101126.38
2022-10-13T04:25:24.114Z,101114.91
2022-10-13T04:27:27.421Z,101105.19
2022-10-13T04:29:30.795Z,101103.41
2022-10-13T04:31:35.819Z,101106.03
2022-10-13T04:33:39.161Z,101108.81
2022-10-13T04:35:43.155Z,101103.63
2022-10-13T04:37:46.397Z,101102.81
2022-10-13T04:39:49.729Z,101114.31
2022-10-13T04:41:52.953Z,101114.41
2022-10-13T04:43:56.324Z,101121.38
2022-10-13T04:46:02.898Z,101117.09
2022-10-13T04:48:07.931Z,101115.38
2022-10-13T04:50:11.893Z,101115.59
2022-10-13T04:52:15.145Z,101111.50
2022-10-13T04:54:18.453Z,101113.28
2022-10-13T04:56:21.670Z,101109.72
2022-10-13T04:58:24.962Z,101121.03
2022-10-13T05:00:28.686Z,101112.28
2022-10-13T05:02:32.045Z,101107.09
2022-10-13T05:04:36.972Z,101106.25
2022-10-13T05:07:05.311Z,101106.28
2022-10-13T05:09:06.005Z,101106.34
2022-10-13T05:11:09.362Z,101107.22
2022-10-13T05:13:12.611Z,101115.13
2022-10-13T05:15:16.167Z,101114.19
2022-10-13T05:17:19.452Z,101114.19
2022-10-13T05:19:22.794Z,101122.16
2022-10-13T05:21:29.765Z,101118.66
2022-10-13T05:23:33.658Z,101110.03
2022-10-13T05:25:37.982Z,101115.28
2022-10-13T05:27:41.333Z,101101.44
2022-10-13T05:29:45.850Z,101100.63
2022-10-13T05:31:49.104Z,101106.97
2022-10-13T05:33:53.142Z,101102.00
2022-10-13T05:36:05.317Z,101101.94
2022-10-13T05:38:13.857Z,101094.00
2022-10-13T05:40:21.434Z,101094.72
2022-10-13T05:42:24.617Z,101101.63
2022-10-13T05:44:28.014Z,101097.28
2022-10-13T05:46:32.045Z,101093.81
2022-10-13T05:48:35.801Z,101098.16
2022-10-13T05:50:39.025Z,101095.47
2022-10-13T05:52:43.696Z,101096.38
2022-10-13T05:54:51.770Z,101092.16
2022-10-13T05:56:58.744Z,101093.06
2022-10-13T05:59:07.902Z,101087.88
2022-10-13T06:01:14.838Z,101088.84
2022-10-13T06:03:23.462Z,101083.72
2022-10-13T06:05:28.637Z,101086.28
2022-10-13T06:07:33.018Z,101077.56
2022-10-13T06:09:39.063Z,101073.34
2022-10-13T06:11:43.670Z,101065.53
2022-10-13T06:13:46.990Z,101061.94
2022-10-13T06:15:50.280Z,101059.38
2022-10-13T06:17:53.568Z,101052.47
2022-10-13T06:19:56.883Z,101040.97
2022-10-13T06:22:03.596Z,101032.97
2022-10-13T06:24:07.626Z,101037.22
2022-10-13T06:26:10.854Z,101030.19
2022-10-13T06:28:16.621Z,101034.56
2022-10-13T06:30:19.963Z,101030.91
2022-10-13T06:32:23.374Z,101031.84
2022-10-13T06:34:26.788Z,101029.16
2022-10-13T06:36:30.040Z,101028.25
2022-10-13T06:38:33.890Z,101037.81
2022-10-13T06:40:37.153Z,101025.47
2022-10-13T06:42:40.642Z,101030.66
2022-10-13T06:44:46.853Z,101029.75
2022-10-13T06:46:50.343Z,101029.69
2022-10-13T06:48:54.340Z,101039.41
2022-10-13T06:51:02.345Z,101048.16
2022-10-13T06:53:05.693Z,101060.41
2022-10-13T06:55:09.708Z,101055.09
2022-10-13T06:57:13.050Z,101063.88
2022-10-13T06:59:16.577Z,101053.28
2022-10-13T07:01:23.888Z,101061.25
2022-10-13T07:03:27.221Z,101069.94
2022-10-13T07:05:30.649Z,101066.22
2022-10-13T07:07:34.302Z,101071.34
2022-10-13T07:09:37.693Z,101068.06
2022-10-13T07:11:41.555Z,101059.31
2022-10-13T07:13:47.141Z,101058.13
2022-10-13T07:15:52.154Z,101059.03
2022-10-13T07:17:57.285Z,101064.16
2022-10-13T07:20:03.669Z,101062.13
2022-10-13T07:22:10.873Z,101074.13
2022-10-13T07:24:14.652Z,101074.72
2022-10-13T07:26:18.639Z,101079.84
2022-10-13T07:28:22.304Z,101088.41
2022-10-13T07:30:27.049Z,101077.66
2022-10-13T07:32:31.130Z,101086.28
2022-10-13T07:34:36.331Z,101075.03
2022-10-13T07:36:41.836Z,101069.69
2022-10-13T07:38:45.593Z,101079.31
2022-10-13T07:40:49.444Z,101066.91
2022-10-13T07:42:53.072Z,101071.91
2022-10-13T07:44:56.639Z,101064.59
2022-10-13T07:47:02.432Z,101062.53
2022-10-13T07:49:06.105Z,101071.06
2022-10-13T07:51:13.666Z,101082.34
2022-10-13T07:53:17.390Z,101070.66
2022-10-13T07:55:20.985Z,101075.75
2022-10-13T07:57:29.908Z,101070.31
2022-10-13T07:59:34.263Z,101064.16
2022-10-13T08:01:38.471Z,101064.81
2022-10-13T08:03:45.755Z,101062.69
2022-10-13T08:05:56.312Z,101059.69
2022-10-13T08:08:01.358Z,101065.63
2022-10-13T08:10:06.089Z,101058.41
2022-10-13T08:12:09.823Z,101053.84
2022-10-13T08:14:15.204Z,101054.41
2022-10-13T08:16:19.194Z,101049.53
2022-10-13T08:18:22.857Z,101053.66
2022-10-13T08:20:32.126Z,101056.63
2022-10-13T08:22:45.261Z,101066.59
2022-10-13T08:24:50.359Z,101065.91
2022-10-13T08:26:54.391Z,101063.47
2022-10-13T08:29:16.654Z,101066.41
2022-10-13T08:31:22.442Z,101068.38
2022-10-13T08:33:29.299Z,101072.16
2022-10-13T08:35:34.780Z,101069.69
2022-10-13T08:37:38.573Z,101075.03
2022-10-13T08:39:42.180Z,101068.41
2022-10-13T08:41:47.562Z,101070.38
2022-10-13T08:44:33.638Z,101071.63
2022-10-13T08:46:24.690Z,101062.72
2022-10-13T08:48:32.876Z,101066.19
2022-10-13T08:50:40.569Z,101071.75
2022-10-13T08:52:48.674Z,101069.69
2022-10-13T08:54:53.114Z,101070.00
2022-10-13T08:56:58.565Z,101059.66
2022-10-13T08:59:04.784Z,101058.28
2022-10-13T09:01:14.972Z,101054.22
2022-10-13T09:03:26.824Z,101044.94
2022-10-13T09:05:39.135Z,101042.53
2022-10-13T09:07:42.829Z,101044.16
2022-10-13T09:09:46.537Z,101046.47
2022-10-13T09:11:51.897Z,101047.84
2022-10-13T09:13:59.997Z,101044.03
2022-10-13T09:16:03.560Z,101045.59
2022-10-13T09:18:12.264Z,101036.53
2022-10-13T09:20:21.496Z,101031.81
2022-10-13T09:22:27.625Z,101034.00
2022-10-13T09:24:31.300Z,101024.03
2022-10-13T09:26:39.302Z,101022.09
2022-10-13T09:28:42.785Z,101019.84
2022-10-13T09:30:49.775Z,101024.06
2022-10-13T09:32:57.470Z,101027.25
2022-10-13T09:35:22.169Z,101027.66
2022-10-13T09:37:27.264Z,101021.38
2022-10-13T09:39:31.793Z,101024.66
2022-10-13T09:41:36.722Z,101024.91
2022-10-13T09:43:44.413Z,101017.78
2022-10-13T09:45:55.194Z,101009.88
2022-10-13T09:48:04.802Z,101014.72
2022-10-13T09:50:19.458Z,101013.16
2022-10-13T09:52:25.390Z,100998.09
2022-10-13T09:54:38.393Z,100997.75
2022-10-13T09:56:47.704Z,100989.00
2022-10-13T09:58:57.221Z,100986.69
2022-10-13T10:01:03.544Z,100979.59
2022-10-13T10:03:12.398Z,100978.47
2022-10-13T10:05:22.774Z,100971.50
2022-10-13T10:07:30.835Z,100983.50
2022-10-13T10:09:41.344Z,100973.16
2022-10-13T10:11:49.109Z,100971.59
2022-10-13T10:13:53.849Z,100970.34
2022-10-13T10:16:04.061Z,100966.72
2022-10-13T10:18:14.224Z,100970.56
2022-10-13T10:20:44.776Z,100968.53
2022-10-13T10:22:57.674Z,100956.94
2022-10-13T10:25:11.936Z,100945.88
2022-10-13T10:29:33.966Z,100944.22
2022-10-13T10:31:47.412Z,100930.72
2022-10-13T10:34:06.150Z,100937.25
2022-10-13T10:36:17.203Z,100926.06
2022-10-13T10:38:34.464Z,100918.75
2022-10-13T10:40:47.555Z,100921.94
2022-10-13T10:43:06.253Z,100923.38
2022-10-13T10:45:18.808Z,100924.22
2022-10-13T10:47:29.302Z,100911.44
2022-10-13T10:49:36.586Z,100918.81
2022-10-13T10:51:40.694Z,100914.78
2022-10-13T10:53:55.080Z,100912.69
2022-10-13T10:56:05.827Z,100917.44
2022-10-13T10:58:23.885Z,100909.63
2022-10-13T11:02:48.573Z,100909.72
2022-10-13T11:04:55.457Z,100912.94
2022-10-13T11:07:00.682Z,100904.50
2022-10-13T11:09:05.971Z,100904.16
2022-10-13T11:11:37.834Z,100893.59
2022-10-13T11:13:55.124Z,100897.13
2022-10-13T11:15:58.882Z,100894.22
2022-10-13T11:18:02.779Z,100891.94
2022-10-13T11:20:59.854Z,100887.06
2022-10-13T11:23:31.795Z,100892.66
2022-10-13T11:25:40.179Z,100906.94
2022-10-13T11:27:46.948Z,100903.06
2022-10-13T11:29:57.060Z,100898.84
2022-10-13T11:32:00.805Z,100889.13
2022-10-13T11:34:05.530Z,100892.50
2022-10-13T11:36:38.239Z,100895.88
2022-10-13T11:38:44.668Z,100882.09
2022-10-13T11:41:05.715Z,100873.13
2022-10-13T11:43:36.362Z,100883.25
2022-10-13T11:45:53.227Z,100882.78
2022-10-13T11:48:19.744Z,100878.94
2022-10-13T11:50:30.447Z,100878.41
2022-10-13T11:52:50.324Z,100884.47
2022-10-13T11:54:59.570Z,100886.03
2022-10-13T11:57:04.839Z,100884.59
2022-10-13T11:59:22.073Z,100895.94
2022-10-13T12:01:25.796Z,100887.72
2022-10-13T12:03:32.132Z,100890.66
2022-10-13T12:05:36.287Z,100892.88
2022-10-13T12:07:44.186Z,100895.34
2022-10-13T12:09:53.557Z,100899.78
2022-10-13T12:12:03.258Z,100892.75
2022-10-13T12:14:17.814Z,100898.34
2022-10-13T12:16:23.456Z,100904.19
2022-10-13T12:18:30.272Z,100909.28
2022-10-13T12:20:34.629Z,100907.06
2022-10-13T12:22:40.349Z,100896.38
2022-10-13T12:24:59.169Z,100890.09
2022-10-13T12:27:13.349Z,100889.44
2022-10-13T12:29:19.386Z,100899.00
2022-10-13T12:31:25.350Z,100886.63
2022-10-13T12:33:32.495Z,100878.88
2022-10-13T12:35:37.264Z,100869.19
2022-10-13T12:37:42.568Z,100864.69
2022-10-13T12:39:49.940Z,100854.00
2022-10-13T12:41:55.947Z,100854.59
2022-10-13T12:44:04.056Z,100849.94
2022-10-13T12:46:11.575Z,100844.47
2022-10-13T12:48:33.242Z,100838.28
2022-10-13T12:50:39.178Z,100831.25
2022-10-13T12:52:44.025Z,100839.25
2022-10-13T12:54:52.261Z,100827.34
2022-10-13T12:56:59.439Z,100817.09
2022-10-13T12:59:04.000Z,100816.69
2022-10-13T13:01:11.435Z,100815.88
2022-10-13T13:03:24.769Z,100809.69
2022-10-13T13:05:31.828Z,100810.06
2022-10-13T13:07:39.274Z,100803.69
2022-10-13T13:09:43.283Z,100806.31
2022-10-13T13:11:49.306Z,100799.94
2022-10-13T13:13:53.139Z,100805.41
2022-10-13T13:16:15.316Z,100795.69
2022-10-13T13:18:35.972Z,100790.09
2022-10-13T13:20:39.962Z,100780.13
2022-10-13T13:22:43.683Z,100778.19
2022-10-13T13:24:47.931Z,100774.41
2022-10-13T13:26:53.417Z,100772.56
2022-10-13T13:28:58.373Z,100775.25
2022-10-13T13:31:02.579Z,100784.22
2022-10-13T13:33:06.317Z,100784.63
2022-10-13T13:35:11.399Z,100797.38
2022-10-13T13:37:18.822Z,100794.25
2022-10-13T13:39:23.137Z,100791.16
2022-10-13T13:41:31.151Z,100792.13
2022-10-13T13:43:36.873Z,100801.25
2022-10-13T13:45:41.469Z,100804.88
2022-10-13T13:47:46.171Z,100816.41
2022-10-13T13:49:51.097Z,100809.13
2022-10-13T13:51:55.428Z,100802.81
2022-10-13T13:53:59.617Z,100789.84
2022-10-13T13:56:04.032Z,100787.56
2022-10-13T13:58:08.372Z,100780.53
2022-10-13T14:00:17.600Z,100774.47
2022-10-13T14:02:26.664Z,100778.13
2022-10-13T14:04:31.949Z,100772.50
2022-10-13T14:06:36.895Z,100765.25
2022-10-13T14:08:43.038Z,100764.97
2022-10-13T14:10:47.936Z,100756.00
2022-10-13T14:12:55.765Z,100749.91
2022-10-13T14:15:00.342Z,100735.16
2022-10-13T14:17:07.265Z,100743.56
2022-10-13T14:19:11.471Z,100742.13
2022-10-13T14:21:15.954Z,100743.22
2022-10-13T14:23:20.055Z,100736.47
2022-10-13T14:25:24.898Z,100733.19
2022-10-13T14:27:29.050Z,100731.63
2022-10-13T14:29:33.643Z,100729.22
2022-10-13T14:31:37.928Z,100722.47
2022-10-13T14:33:44.563Z,100718.31
2022-10-13T14:35:48.925Z,100713.38
2022-10-13T14:37:53.484Z,100703.94
2022-10-13T14:39:57.422Z,100707.84
2022-10-13T14:42:01.857Z,100701.91
2022-10-13T14:44:06.395Z,100700.63
2022-10-13T14:46:11.149Z,100693.97
2022-10-13T14:48:15.638Z,100704.19
2022-10-13T14:50:22.273Z,100700.19
2022-10-13T14:52:32.699Z,100701.69
2022-10-13T14:54:41.157Z,100706.69
2022-10-13T14:56:48.565Z,100706.91
2022-10-13T14:58:54.459Z,100711.66
2022-10-13T15:00:59.792Z,100713.59
2022-10-13T15:03:04.731Z,100713.97
2022-10-13T15:05:09.662Z,100718.56
2022-10-13T15:07:16.129Z,100708.03
2022-10-13T15:09:25.586Z,100708.19
2022-10-13T15:11:38.610Z,100698.59
2022-10-13T15:13:43.788Z,100699.59
2022-10-13T15:15:49.251Z,100703.09
2022-10-13T15:17:53.719Z,100693.16
2022-10-13T15:19:58.436Z,100692.19
2022-10-13T15:22:03.116Z,100688.28
2022-10-13T15:24:09.640Z,100690.84
2022-10-13T15:26:15.732Z,100677.28
2022-10-13T15:28:20.045Z,100678.94
2022-10-13T15:30:24.949Z,100677.16
2022-10-13T15:32:29.372Z,100673.75
2022-10-13T15:34:39.775Z,100680.91
2022-10-13T15:36:44.806Z,100668.69
2022-10-13T15:38:49.184Z,100674.00
2022-10-13T15:41:00.808Z,100673.19
2022-10-13T15:43:05.273Z,100659.72
2022-10-13T15:45:11.589Z,100659.72
2022-10-13T15:47:17.450Z,100658.72
2022-10-13T15:49:22.417Z,100659.31
2022-10-13T15:51:27.416Z,100661.03
2022-10-13T15:53:32.480Z,100654.59
2022-10-13T15:55:37.386Z,100649.13
2022-10-13T15:57:44.117Z,100650.69
2022-10-13T15:59:48.907Z,100640.16
2022-10-13T16:01:54.070Z,100642.09
2022-10-13T16:03:58.947Z,100639.56
2022-10-13T16:06:06.657Z,100631.72
2022-10-13T16:08:12.298Z,100644.31
2022-10-13T16:10:18.878Z,100637.41
2022-10-13T16:12:24.904Z,100632.19
2022-10-13T16:14:30.669Z,100635.97
2022-10-13T16:16:35.761Z,100632.72
2022-10-13T16:18:41.137Z,100644.47
2022-10-13T16:20:45.655Z,100641.06
2022-10-13T16:22:49.985Z,100636.84
2022-10-13T16:24:54.751Z,100636.28
2022-10-13T16:26:59.125Z,100636.53
2022-10-13T16:29:04.694Z,100647.28
2022-10-13T16:31:13.966Z,100649.38
2022-10-13T16:33:19.499Z,100643.31
2022-10-13T16:35:23.676Z,100646.22
2022-10-13T16:37:27.819Z,100650.84
2022-10-13T16:39:32.476Z,100644.78
2022-10-13T16:41:38.331Z,100645.88
2022-10-13T16:43:43.917Z,100654.00
2022-10-13T16:45:59.903Z,100652.31
2022-10-13T16:48:06.909Z,100654.25
2022-10-13T16:50:12.366Z,100646.41
2022-10-13T16:52:16.604Z,100662.47
2022-10-13T16:54:22.116Z,100663.47
2022-10-13T16:56:28.676Z,100656.44
2022-10-13T16:58:32.983Z,100663.69
2022-10-13T17:00:39.407Z,100662.84
2022-10-13T17:02:43.331Z,100668.19
2022-10-13T17:04:49.340Z,100664.81
2022-10-13T17:06:53.474Z,100661.41
2022-10-13T17:08:58.446Z,100660.56
2022-10-13T17:11:02.627Z,100653.53
2022-10-13T17:13:06.420Z,100653.53
2022-10-13T17:15:11.940Z,100651.13
2022-10-13T17:17:17.161Z,100647.69
2022-10-13T17:19:21.109Z,100642.75
2022-10-13T17:21:26.991Z,100643.84
2022-10-13T17:23:31.962Z,100650.25
2022-10-13T17:25:36.208Z,100654.97
2022-10-13T17:27:45.887Z,100648.81
2022-10-13T17:29:50.411Z,100654.38
2022-10-13T17:31:54.647Z,100659.72
2022-10-13T17:34:00.841Z,100663.31
2022-10-13T17:36:08.343Z,100666.81
2022-10-13T17:38:14.128Z,100657.88
2022-10-13T17:40:18.543Z,100671.19
2022-10-13T17:42:22.572Z,100670.47
2022-10-13T17:44:28.303Z,100674.94
2022-10-13T17:46:38.750Z,100673.34
2022-10-13T17:48:43.795Z,100674.34
2022-10-13T17:50:48.109Z,100678.09
2022-10-13T17:52:52.373Z,100677.22
2022-10-13T17:54:57.967Z,100680.88
2022-10-13T17:57:04.756Z,100686.22
2022-10-13T17:59:10.063Z,100690.78
2022-10-13T18:01:16.998Z,100691.75
2022-10-13T18:03:22.331Z,100686.66
2022-10-13T18:05:26.540Z,100688.63
2022-10-13T18:07:30.574Z,100691.38
2022-10-13T18:09:34.425Z,100695.97
2022-10-13T18:11:43.353Z,100693.69
2022-10-13T18:13:51.734Z,100688.59
2022-10-13T18:15:55.745Z,100683.38
2022-10-13T18:17:59.958Z,100681.09
2022-10-13T18:20:06.047Z,100676.00
2022-10-13T18:22:12.037Z,100680.72
2022-10-13T18:24:16.348Z,100680.22
2022-10-13T18:26:21.947Z,100689.41
2022-10-13T18:28:30.006Z,100682.75
2022-10-13T18:30:35.012Z,100694.56
2022-10-13T18:32:38.715Z,100685.13
2022-10-13T18:34:42.678Z,100684.50
2022-10-13T18:36:48.620Z,100678.59
2022-10-13T18:38:52.337Z,100677.97
2022-10-13T18:41:01.331Z,100677.34
2022-10-13T18:43:05.313Z,100675.03
2022-10-13T18:45:11.987Z,100661.13
2022-10-13T18:47:16.197Z,100663.19
2022-10-13T18:49:23.324Z,100660.66
2022-10-13T18:51:35.955Z,100660.84
2022-10-13T18:53:42.443Z,100661.84
2022-10-13T18:55:48.908Z,100664.72
2022-10-13T18:57:52.978Z,100661.34
2022-10-13T18:59:56.873Z,100655.28
2022-10-13T19:02:08.671Z,100652.84
2022-10-13T19:04:15.369Z,100660.06
2022-10-13T19:06:23.481Z,100663.72
2022-10-13T19:08:31.695Z,100664.78
2022-10-13T19:10:35.596Z,100657.06
2022-10-13T19:12:39.472Z,100660.66
2022-10-13T19:14:43.192Z,100659.06
2022-10-13T19:16:46.903Z,100654.72
2022-10-13T19:18:53.899Z,100651.34
2022-10-13T19:20:58.159Z,100655.16
2022-10-13T19:23:02.144Z,100658.75
2022-10-13T19:25:06.760Z,100662.25
2022-10-13T19:27:11.317Z,100663.31
2022-10-13T19:29:16.749Z,100658.00
2022-10-13T19:31:23.698Z,100666.97
2022-10-13T19:33:28.158Z,100658.00
2022-10-13T19:35:33.208Z,100664.06
2022-10-13T19:37:38.177Z,100672.69
2022-10-13T19:39:42.170Z,100675.03
2022-10-13T19:41:47.329Z,100679.97
2022-10-13T19:43:51.831Z,100682.44
2022-10-13T19:45:59.798Z,100684.84
2022-10-13T19:48:03.793Z,100684.75
2022-10-13T19:50:09.116Z,100683.53
2022-10-13T19:52:15.258Z,100675.34
2022-10-13T19:54:21.074Z,100678.63
2022-10-13T19:56:27.232Z,100678.38
2022-10-13T19:58:31.692Z,100677.44
2022-10-13T20:00:37.846Z,100672.94
2022-10-13T20:02:42.775Z,100672.00
2022-10-13T20:04:46.597Z,100665.72
2022-10-13T20:06:51.379Z,100661.25
2022-10-13T20:08:56.827Z,100665.72
2022-10-13T20:11:01.133Z,100654.34
2022-10-13T20:13:04.972Z,100663.31
2022-10-13T20:15:12.855Z,100652.75
2022-10-13T20:17:19.970Z,100651.09
2022-10-13T20:19:30.971Z,100653.00
2022-10-13T20:21:34.933Z,100653.97
2022-10-13T20:23:38.795Z,100652.28
2022-10-13T20:25:44.098Z,100647.94
2022-10-13T20:27:47.843Z,100650.59
2022-10-13T20:29:51.866Z,100639.94
2022-10-13T20:31:55.672Z,100647.06
2022-10-13T20:34:00.111Z,100638.38
2022-10-13T20:36:10.289Z,100631.34
2022-10-13T20:38:14.220Z,100635.09
2022-10-13T20:40:18.230Z,100634.38
2022-10-13T20:42:23.561Z,100636.28
2022-10-13T20:44:27.604Z,100641.00
2022-10-13T20:46:31.545Z,100650.88
2022-10-13T20:49:05.080Z,100641.44
2022-10-13T20:51:02.970Z,100634.53
2022-10-13T20:53:07.090Z,100634.63
2022-10-13T20:55:11.484Z,100631.25
2022-10-13T20:57:15.585Z,100628.81
2022-10-13T20:59:23.254Z,100627.13
2022-10-13T21:01:27.108Z,100621.06
2022-10-13T21:03:30.989Z,100618.41
2022-10-13T21:05:41.662Z,100613.34
2022-10-13T21:07:45.535Z,100615.13
2022-10-13T21:09:53.625Z,100610.03
2022-10-13T21:12:00.868Z,100613.66
2022-10-13T21:14:07.137Z,100613.78
2022-10-13T21:16:14.659Z,100607.75
2022-10-13T21:18:18.474Z,100610.50
2022-10-13T21:20:22.356Z,100604.44
2022-10-13T21:22:26.189Z,100604.56
2022-10-13T21:24:30.110Z,100603.84
2022-10-13T21:26:35.525Z,100603.09
2022-10-13T21:28:40.336Z,100606.72
2022-10-13T21:30:43.994Z,100610.34
2022-10-13T21:32:49.247Z,100612.25
2022-10-13T21:34:54.462Z,100609.72
2022-10-13T21:36:58.318Z,100614.19
2022-10-13T21:39:03.795Z,100622.25
2022-10-13T21:41:10.953Z,100614.38
2022-10-13T21:43:14.935Z,100609.09
2022-10-13T21:45:19.181Z,100614.38
2022-10-13T21:47:23.259Z,100617.16
2022-10-13T21:49:28.792Z,100618.97
2022-10-13T21:51:34.610Z,100614.50
2022-10-13T21:53:39.121Z,100610.16
2022-10-13T21:55:43.077Z,100606.66
2022-10-13T21:57:46.981Z,100610.25
2022-10-13T21:59:50.647Z,100596.28
2022-10-13T22:01:54.284Z,100601.69
2022-10-13T22:04:00.560Z,100597.34
2022-10-13T22:06:14.608Z,100598.41
2022-10-13T22:08:37.639Z,100603.72
2022-10-13T22:10:49.818Z,100596.81
2022-10-13T22:12:53.990Z,100596.09
2022-10-13T22:14:58.101Z,100588.13
2022-10-13T22:17:01.698Z,100591.75
2022-10-13T22:19:05.971Z,100592.69
2022-10-13T22:21:17.563Z,100591.00
2022-10-13T22:23:21.545Z,100594.72
2022-10-13T22:25:25.671Z,100596.53
2022-10-13T22:27:29.882Z,100601.94
2022-10-13T22:29:33.890Z,100592.41
2022-10-13T22:31:38.382Z,100594.34
2022-10-13T22:33:48.670Z,100593.59
2022-10-13T22:35:52.609Z,100596.47
2022-10-13T22:38:00.049Z,100596.56
2022-10-13T22:40:04.077Z,100601.97
2022-10-13T22:42:08.198Z,100601.97
2022-10-13T22:44:12.520Z,100598.47
2022-10-13T22:46:19.047Z,100595.09
2022-10-13T22:48:22.705Z,100589.88
2022-10-13T22:50:26.677Z,100596.28
2022-10-13T22:52:30.589Z,100595.41
2022-10-13T22:54:36.091Z,100588.50
2022-10-13T22:56:41.807Z,100579.72
2022-10-13T22:58:46.151Z,100593.81
2022-10-13T23:00:59.096Z,100585.03
2022-10-13T23:03:03.130Z,100585.25
2022-10-13T23:05:07.422Z,100580.06
2022-10-13T23:07:11.113Z,100582.91
2022-10-13T23:09:16.053Z,100575.94
2022-10-13T23:11:21.779Z,100573.28
2022-10-13T23:13:25.631Z,100580.38
2022-10-13T23:15:30.914Z,100572.53
2022-10-13T23:17:35.539Z,100563.84
2022-10-13T23:19:39.272Z,100558.03
2022-10-13T23:21:42.962Z,100559.91
2022-10-13T23:23:47.864Z,100556.44
2022-10-13T23:25:51.642Z,100559.91
2022-10-13T23:27:56.740Z,100552.81
2022-10-13T23:30:00.413Z,100548.69
2022-10-13T23:32:08.867Z,100550.47
2022-10-13T23:34:13.633Z,100555.06
2022-10-13T23:36:19.377Z,100547.09
2022-10-13T23:38:27.848Z,100545.41
2022-10-13T23:40:31.533Z,100541.06
2022-10-13T23:42:35.291Z,100536.69
2022-10-13T23:44:40.626Z,100535.97
2022-10-13T23:46:44.437Z,100542.22
2022-10-13T23:48:50.622Z,100538.75
2022-10-13T23:50:54.476Z,100531.84
2022-10-13T23:52:58.627Z,100531.84
2022-10-13T23:55:02.328Z,100525.78
2022-10-13T23:57:06.308Z,100533.97
2022-10-13T23:59:10.318Z,100521.66
